sensor_id;sensor_type;location;lat;lon;timestamp;P1;durP1;ratioP1;P2;durP2;ratioP2
23088;SDS011;11713;48.506;8.966;2022-09-09T00:00:20;2.00;;;1.37;;
23088;SDS011;11713;48.506;8.966;2022-09-09T00:03:05;2.80;;;2.03;;
23088;SDS011;11713;48.506;8.966;2022-09-09T00:08:18;3.77;;;2.03;;
23088;SDS011;11713;48.506;8.966;2022-09-09T00:10:48;4.90;;;1.83;;
23088;SDS011;11713;48.506;8.966;2022-09-09T00:13:27;4.10;;;1.83;;
23088;SDS011;11713;48.506;8.966;2022-09-09T00:16:08;3.40;;;1.90;;
23088;SDS011;11713;48.506;8.966;2022-09-09T00:21:12;3.43;;;1.60;;
23088;SDS011;11713;48.506;8.966;2022-09-09T00:26:32;2.50;;;1.73;;
23088;SDS011;11713;48.506;8.966;2022-09-09T00:31:37;1.60;;;1.50;;
23088;SDS011;11713;48.506;8.966;2022-09-09T00:36:42;2.17;;;1.40;;
23088;SDS011;11713;48.506;8.966;2022-09-09T00:39:23;4.07;;;1.77;;
23088;SDS011;11713;48.506;8.966;2022-09-09T00:47:12;2.43;;;1.67;;
23088;SDS011;11713;48.506;8.966;2022-09-09T00:50:08;3.87;;;1.60;;
23088;SDS011;11713;48.506;8.966;2022-09-09T00:57:57;3.33;;;1.50;;
23088;SDS011;11713;48.506;8.966;2022-09-09T01:00:27;1.97;;;1.30;;
23088;SDS011;11713;48.506;8.966;2022-09-09T01:11:26;4.63;;;1.70;;
23088;SDS011;11713;48.506;8.966;2022-09-09T01:14:03;3.77;;;1.43;;
23088;SDS011;11713;48.506;8.966;2022-09-09T01:16:43;3.70;;;1.40;;
23088;SDS011;11713;48.506;8.966;2022-09-09T01:19:12;4.17;;;1.63;;
23088;SDS011;11713;48.506;8.966;2022-09-09T01:22:09;2.73;;;1.60;;
23088;SDS011;11713;48.506;8.966;2022-09-09T01:28:05;3.33;;;1.60;;
23088;SDS011;11713;48.506;8.966;2022-09-09T01:30:38;4.90;;;1.93;;
23088;SDS011;11713;48.506;8.966;2022-09-09T01:33:10;3.20;;;1.67;;
23088;SDS011;11713;48.506;8.966;2022-09-09T01:38:21;5.47;;;1.53;;
23088;SDS011;11713;48.506;8.966;2022-09-09T01:40:51;3.93;;;1.50;;
23088;SDS011;11713;48.506;8.966;2022-09-09T01:43:21;2.83;;;1.43;;
23088;SDS011;11713;48.506;8.966;2022-09-09T01:45:49;6.13;;;1.57;;
23088;SDS011;11713;48.506;8.966;2022-09-09T01:48:18;5.57;;;1.53;;
23088;SDS011;11713;48.506;8.966;2022-09-09T01:50:51;2.40;;;1.70;;
23088;SDS011;11713;48.506;8.966;2022-09-09T01:53:18;3.57;;;1.40;;
23088;SDS011;11713;48.506;8.966;2022-09-09T01:55:53;2.50;;;1.50;;
23088;SDS011;11713;48.506;8.966;2022-09-09T02:04:01;2.83;;;1.30;;
23088;SDS011;11713;48.506;8.966;2022-09-09T02:06:37;4.33;;;1.47;;
23088;SDS011;11713;48.506;8.966;2022-09-09T02:09:16;1.93;;;1.20;;
23088;SDS011;11713;48.506;8.966;2022-09-09T02:11:47;2.40;;;1.40;;
23088;SDS011;11713;48.506;8.966;2022-09-09T02:14:38;2.07;;;1.40;;
23088;SDS011;11713;48.506;8.966;2022-09-09T02:17:09;3.87;;;1.40;;
23088;SDS011;11713;48.506;8.966;2022-09-09T02:20:03;3.17;;;1.80;;
23088;SDS011;11713;48.506;8.966;2022-09-09T02:22:42;4.00;;;1.90;;
23088;SDS011;11713;48.506;8.966;2022-09-09T02:25:13;6.33;;;1.50;;
23088;SDS011;11713;48.506;8.966;2022-09-09T02:27:43;2.37;;;1.40;;
23088;SDS011;11713;48.506;8.966;2022-09-09T02:30:11;2.87;;;1.27;;
23088;SDS011;11713;48.506;8.966;2022-09-09T02:32:44;4.33;;;1.43;;
23088;SDS011;11713;48.506;8.966;2022-09-09T02:35:17;3.20;;;1.40;;
23088;SDS011;11713;48.506;8.966;2022-09-09T02:37:46;3.87;;;1.60;;
23088;SDS011;11713;48.506;8.966;2022-09-09T02:40:14;2.97;;;1.50;;
23088;SDS011;11713;48.506;8.966;2022-09-09T02:42:45;2.60;;;1.43;;
23088;SDS011;11713;48.506;8.966;2022-09-09T02:45:14;4.03;;;1.53;;
23088;SDS011;11713;48.506;8.966;2022-09-09T02:47:51;2.73;;;1.27;;
23088;SDS011;11713;48.506;8.966;2022-09-09T02:53:31;2.67;;;1.47;;
23088;SDS011;11713;48.506;8.966;2022-09-09T02:56:13;3.10;;;1.40;;
23088;SDS011;11713;48.506;8.966;2022-09-09T02:58:46;3.93;;;1.53;;
23088;SDS011;11713;48.506;8.966;2022-09-09T03:01:12;2.70;;;1.53;;
23088;SDS011;11713;48.506;8.966;2022-09-09T03:03:39;2.63;;;1.40;;
23088;SDS011;11713;48.506;8.966;2022-09-09T03:06:10;2.57;;;1.60;;
23088;SDS011;11713;48.506;8.966;2022-09-09T03:08:38;3.93;;;1.50;;
23088;SDS011;11713;48.506;8.966;2022-09-09T03:11:04;1.83;;;1.37;;
23088;SDS011;11713;48.506;8.966;2022-09-09T03:13:34;3.83;;;1.77;;
23088;SDS011;11713;48.506;8.966;2022-09-09T03:16:00;1.90;;;1.50;;
23088;SDS011;11713;48.506;8.966;2022-09-09T03:18:28;3.97;;;1.40;;
23088;SDS011;11713;48.506;8.966;2022-09-09T03:20:54;2.73;;;1.67;;
23088;SDS011;11713;48.506;8.966;2022-09-09T03:23:20;1.43;;;1.33;;
23088;SDS011;11713;48.506;8.966;2022-09-09T03:25:48;2.93;;;1.70;;
23088;SDS011;11713;48.506;8.966;2022-09-09T03:28:18;2.00;;;1.47;;
23088;SDS011;11713;48.506;8.966;2022-09-09T03:30:45;3.53;;;1.83;;
23088;SDS011;11713;48.506;8.966;2022-09-09T03:33:11;1.77;;;1.50;;
23088;SDS011;11713;48.506;8.966;2022-09-09T03:35:38;4.27;;;1.83;;
23088;SDS011;11713;48.506;8.966;2022-09-09T03:38:04;5.17;;;2.03;;
23088;SDS011;11713;48.506;8.966;2022-09-09T03:40:32;2.63;;;1.60;;
23088;SDS011;11713;48.506;8.966;2022-09-09T03:42:59;4.67;;;1.70;;
23088;SDS011;11713;48.506;8.966;2022-09-09T03:45:25;3.63;;;1.70;;
23088;SDS011;11713;48.506;8.966;2022-09-09T03:47:51;5.60;;;2.00;;
23088;SDS011;11713;48.506;8.966;2022-09-09T03:50:17;5.87;;;2.23;;
23088;SDS011;11713;48.506;8.966;2022-09-09T03:52:45;3.10;;;1.80;;
23088;SDS011;11713;48.506;8.966;2022-09-09T03:55:17;3.70;;;1.67;;
23088;SDS011;11713;48.506;8.966;2022-09-09T03:57:43;3.70;;;1.73;;
23088;SDS011;11713;48.506;8.966;2022-09-09T04:00:09;3.27;;;1.67;;
23088;SDS011;11713;48.506;8.966;2022-09-09T04:02:50;4.87;;;1.70;;
23088;SDS011;11713;48.506;8.966;2022-09-09T04:05:19;4.07;;;1.93;;
23088;SDS011;11713;48.506;8.966;2022-09-09T04:07:46;4.40;;;1.90;;
23088;SDS011;11713;48.506;8.966;2022-09-09T04:10:12;2.53;;;1.80;;
23088;SDS011;11713;48.506;8.966;2022-09-09T04:12:39;3.67;;;1.70;;
23088;SDS011;11713;48.506;8.966;2022-09-09T04:15:05;3.83;;;1.53;;
23088;SDS011;11713;48.506;8.966;2022-09-09T04:17:32;2.40;;;1.47;;
23088;SDS011;11713;48.506;8.966;2022-09-09T04:19:58;3.63;;;1.80;;
23088;SDS011;11713;48.506;8.966;2022-09-09T04:22:24;2.80;;;1.70;;
23088;SDS011;11713;48.506;8.966;2022-09-09T04:24:50;3.93;;;1.63;;
23088;SDS011;11713;48.506;8.966;2022-09-09T04:27:18;3.47;;;1.97;;
23088;SDS011;11713;48.506;8.966;2022-09-09T04:29:44;2.10;;;1.50;;
23088;SDS011;11713;48.506;8.966;2022-09-09T04:32:12;3.83;;;1.97;;
23088;SDS011;11713;48.506;8.966;2022-09-09T04:34:38;6.00;;;1.70;;
23088;SDS011;11713;48.506;8.966;2022-09-09T04:37:06;3.93;;;1.50;;
23088;SDS011;11713;48.506;8.966;2022-09-09T04:39:32;4.37;;;1.57;;
23088;SDS011;11713;48.506;8.966;2022-09-09T04:41:59;4.47;;;1.83;;
23088;SDS011;11713;48.506;8.966;2022-09-09T04:44:25;3.50;;;1.63;;
23088;SDS011;11713;48.506;8.966;2022-09-09T04:46:52;3.17;;;1.60;;
23088;SDS011;11713;48.506;8.966;2022-09-09T04:49:18;5.57;;;1.77;;
23088;SDS011;11713;48.506;8.966;2022-09-09T04:51:44;2.87;;;1.73;;
23088;SDS011;11713;48.506;8.966;2022-09-09T04:54:12;4.57;;;1.73;;
23088;SDS011;11713;48.506;8.966;2022-09-09T04:56:40;3.77;;;1.90;;
23088;SDS011;11713;48.506;8.966;2022-09-09T04:59:07;6.27;;;1.90;;
23088;SDS011;11713;48.506;8.966;2022-09-09T05:01:47;5.07;;;1.87;;
23088;SDS011;11713;48.506;8.966;2022-09-09T05:04:13;3.90;;;1.63;;
23088;SDS011;11713;48.506;8.966;2022-09-09T05:06:42;2.47;;;1.67;;
23088;SDS011;11713;48.506;8.966;2022-09-09T05:09:10;2.97;;;1.87;;
23088;SDS011;11713;48.506;8.966;2022-09-09T05:11:36;3.20;;;1.57;;
23088;SDS011;11713;48.506;8.966;2022-09-09T05:14:20;4.97;;;1.80;;
23088;SDS011;11713;48.506;8.966;2022-09-09T05:16:46;4.70;;;2.00;;
23088;SDS011;11713;48.506;8.966;2022-09-09T05:19:13;2.87;;;1.87;;
23088;SDS011;11713;48.506;8.966;2022-09-09T05:21:43;2.90;;;1.70;;
23088;SDS011;11713;48.506;8.966;2022-09-09T05:24:09;2.97;;;1.83;;
23088;SDS011;11713;48.506;8.966;2022-09-09T05:26:36;4.70;;;1.80;;
23088;SDS011;11713;48.506;8.966;2022-09-09T05:29:02;3.63;;;1.57;;
23088;SDS011;11713;48.506;8.966;2022-09-09T05:31:30;4.50;;;1.63;;
23088;SDS011;11713;48.506;8.966;2022-09-09T05:33:57;4.43;;;1.87;;
23088;SDS011;11713;48.506;8.966;2022-09-09T05:36:24;2.77;;;1.90;;
23088;SDS011;11713;48.506;8.966;2022-09-09T05:38:54;5.47;;;1.63;;
23088;SDS011;11713;48.506;8.966;2022-09-09T05:41:20;5.23;;;1.90;;
23088;SDS011;11713;48.506;8.966;2022-09-09T05:43:48;5.23;;;1.80;;
23088;SDS011;11713;48.506;8.966;2022-09-09T05:46:23;2.13;;;1.53;;
23088;SDS011;11713;48.506;8.966;2022-09-09T05:48:53;3.90;;;1.80;;
23088;SDS011;11713;48.506;8.966;2022-09-09T05:51:27;3.40;;;1.90;;
23088;SDS011;11713;48.506;8.966;2022-09-09T05:53:56;3.13;;;1.70;;
23088;SDS011;11713;48.506;8.966;2022-09-09T05:56:28;4.43;;;1.80;;
23088;SDS011;11713;48.506;8.966;2022-09-09T05:58:57;7.30;;;1.80;;
23088;SDS011;11713;48.506;8.966;2022-09-09T06:01:31;3.50;;;1.70;;
23088;SDS011;11713;48.506;8.966;2022-09-09T06:04:00;3.10;;;2.00;;
23088;SDS011;11713;48.506;8.966;2022-09-09T06:06:36;2.50;;;1.97;;
23088;SDS011;11713;48.506;8.966;2022-09-09T06:09:10;2.00;;;1.43;;
23088;SDS011;11713;48.506;8.966;2022-09-09T06:11:39;3.93;;;1.90;;
23088;SDS011;11713;48.506;8.966;2022-09-09T06:14:06;3.80;;;1.77;;
23088;SDS011;11713;48.506;8.966;2022-09-09T06:16:33;5.20;;;1.63;;
23088;SDS011;11713;48.506;8.966;2022-09-09T06:19:00;2.67;;;1.43;;
23088;SDS011;11713;48.506;8.966;2022-09-09T06:21:30;3.47;;;1.57;;
23088;SDS011;11713;48.506;8.966;2022-09-09T06:24:06;2.80;;;1.60;;
23088;SDS011;11713;48.506;8.966;2022-09-09T06:26:36;4.33;;;1.70;;
23088;SDS011;11713;48.506;8.966;2022-09-09T06:29:09;2.57;;;1.40;;
23088;SDS011;11713;48.506;8.966;2022-09-09T06:31:36;4.63;;;1.50;;
23088;SDS011;11713;48.506;8.966;2022-09-09T06:34:12;3.33;;;1.47;;
23088;SDS011;11713;48.506;8.966;2022-09-09T06:36:45;1.90;;;1.40;;
23088;SDS011;11713;48.506;8.966;2022-09-09T06:39:11;2.90;;;1.30;;
23088;SDS011;11713;48.506;8.966;2022-09-09T06:41:38;3.97;;;1.50;;
23088;SDS011;11713;48.506;8.966;2022-09-09T06:44:08;2.60;;;1.60;;
23088;SDS011;11713;48.506;8.966;2022-09-09T06:46:40;2.17;;;1.43;;
23088;SDS011;11713;48.506;8.966;2022-09-09T06:49:08;3.07;;;1.50;;
23088;SDS011;11713;48.506;8.966;2022-09-09T06:51:35;4.20;;;1.47;;
23088;SDS011;11713;48.506;8.966;2022-09-09T06:54:08;3.03;;;1.50;;
23088;SDS011;11713;48.506;8.966;2022-09-09T06:56:35;2.23;;;1.77;;
23088;SDS011;11713;48.506;8.966;2022-09-09T06:59:07;4.30;;;1.57;;
23088;SDS011;11713;48.506;8.966;2022-09-09T07:01:36;2.90;;;1.50;;
23088;SDS011;11713;48.506;8.966;2022-09-09T07:04:07;5.00;;;1.77;;
23088;SDS011;11713;48.506;8.966;2022-09-09T07:06:36;3.60;;;1.33;;
23088;SDS011;11713;48.506;8.966;2022-09-09T07:09:07;3.23;;;1.53;;
23088;SDS011;11713;48.506;8.966;2022-09-09T07:11:42;3.67;;;1.77;;
23088;SDS011;11713;48.506;8.966;2022-09-09T07:14:11;2.30;;;1.63;;
23088;SDS011;11713;48.506;8.966;2022-09-09T07:16:40;2.17;;;1.43;;
23088;SDS011;11713;48.506;8.966;2022-09-09T07:19:07;4.03;;;1.60;;
23088;SDS011;11713;48.506;8.966;2022-09-09T07:21:33;4.60;;;1.60;;
23088;SDS011;11713;48.506;8.966;2022-09-09T07:23:59;2.70;;;1.50;;
23088;SDS011;11713;48.506;8.966;2022-09-09T07:26:27;4.47;;;1.30;;
23088;SDS011;11713;48.506;8.966;2022-09-09T07:28:57;3.63;;;1.43;;
23088;SDS011;11713;48.506;8.966;2022-09-09T07:31:24;3.10;;;1.30;;
23088;SDS011;11713;48.506;8.966;2022-09-09T07:33:58;4.13;;;1.33;;
23088;SDS011;11713;48.506;8.966;2022-09-09T07:36:28;4.53;;;1.50;;
23088;SDS011;11713;48.506;8.966;2022-09-09T07:38:58;2.75;;;1.48;;
23088;SDS011;11713;48.506;8.966;2022-09-09T07:41:34;4.23;;;1.53;;
23088;SDS011;11713;48.506;8.966;2022-09-09T07:44:13;3.92;;;1.70;;
23088;SDS011;11713;48.506;8.966;2022-09-09T07:46:43;3.67;;;1.70;;
23088;SDS011;11713;48.506;8.966;2022-09-09T07:49:13;4.78;;;1.60;;
23088;SDS011;11713;48.506;8.966;2022-09-09T07:51:41;3.20;;;2.00;;
23088;SDS011;11713;48.506;8.966;2022-09-09T07:54:10;2.63;;;1.52;;
23088;SDS011;11713;48.506;8.966;2022-09-09T07:56:41;2.53;;;1.45;;
23088;SDS011;11713;48.506;8.966;2022-09-09T07:59:09;6.67;;;1.80;;
23088;SDS011;11713;48.506;8.966;2022-09-09T08:01:37;3.10;;;1.40;;
23088;SDS011;11713;48.506;8.966;2022-09-09T08:04:10;3.28;;;1.80;;
23088;SDS011;11713;48.506;8.966;2022-09-09T08:06:45;4.93;;;1.88;;
23088;SDS011;11713;48.506;8.966;2022-09-09T08:09:15;3.20;;;1.55;;
23088;SDS011;11713;48.506;8.966;2022-09-09T08:11:42;3.67;;;1.88;;
23088;SDS011;11713;48.506;8.966;2022-09-09T08:14:10;3.73;;;1.93;;
23088;SDS011;11713;48.506;8.966;2022-09-09T08:16:38;3.87;;;1.80;;
23088;SDS011;11713;48.506;8.966;2022-09-09T08:19:06;2.60;;;1.52;;
23088;SDS011;11713;48.506;8.966;2022-09-09T08:21:34;4.28;;;1.40;;
23088;SDS011;11713;48.506;8.966;2022-09-09T08:24:02;2.45;;;1.50;;
23088;SDS011;11713;48.506;8.966;2022-09-09T08:26:31;2.10;;;1.10;;
23088;SDS011;11713;48.506;8.966;2022-09-09T08:29:03;2.33;;;1.30;;
23088;SDS011;11713;48.506;8.966;2022-09-09T08:31:33;4.53;;;1.52;;
23088;SDS011;11713;48.506;8.966;2022-09-09T08:34:02;1.73;;;1.40;;
23088;SDS011;11713;48.506;8.966;2022-09-09T08:36:31;3.20;;;1.27;;
23088;SDS011;11713;48.506;8.966;2022-09-09T08:38:59;3.10;;;1.42;;
23088;SDS011;11713;48.506;8.966;2022-09-09T08:47:23;2.33;;;1.33;;
23088;SDS011;11713;48.506;8.966;2022-09-09T08:50:30;2.70;;;1.20;;
23088;SDS011;11713;48.506;8.966;2022-09-09T08:53:21;4.28;;;1.50;;
23088;SDS011;11713;48.506;8.966;2022-09-09T08:56:09;2.65;;;1.25;;
23088;SDS011;11713;48.506;8.966;2022-09-09T08:58:53;3.35;;;1.13;;
23088;SDS011;11713;48.506;8.966;2022-09-09T09:05:11;4.53;;;1.10;;
23088;SDS011;11713;48.506;8.966;2022-09-09T09:10:45;2.53;;;0.90;;
23088;SDS011;11713;48.506;8.966;2022-09-09T09:13:19;2.78;;;1.10;;
23088;SDS011;11713;48.506;8.966;2022-09-09T09:15:58;3.15;;;1.00;;
23088;SDS011;11713;48.506;8.966;2022-09-09T09:18:33;3.10;;;1.05;;
23088;SDS011;11713;48.506;8.966;2022-09-09T09:21:20;2.53;;;1.05;;
23088;SDS011;11713;48.506;8.966;2022-09-09T09:23:59;2.00;;;1.00;;
23088;SDS011;11713;48.506;8.966;2022-09-09T09:26:34;2.80;;;1.17;;
23088;SDS011;11713;48.506;8.966;2022-09-09T09:29:07;4.05;;;1.30;;
23088;SDS011;11713;48.506;8.966;2022-09-09T09:31:37;3.17;;;0.95;;
23088;SDS011;11713;48.506;8.966;2022-09-09T09:34:03;3.95;;;1.02;;
23088;SDS011;11713;48.506;8.966;2022-09-09T09:36:34;2.70;;;1.20;;
23088;SDS011;11713;48.506;8.966;2022-09-09T09:39:03;4.03;;;1.10;;
23088;SDS011;11713;48.506;8.966;2022-09-09T09:41:39;3.10;;;1.05;;
23088;SDS011;11713;48.506;8.966;2022-09-09T09:49:32;2.58;;;1.17;;
23088;SDS011;11713;48.506;8.966;2022-09-09T09:52:02;1.70;;;1.00;;
23088;SDS011;11713;48.506;8.966;2022-09-09T09:54:34;2.25;;;1.02;;
23088;SDS011;11713;48.506;8.966;2022-09-09T09:57:16;2.60;;;1.00;;
23088;SDS011;11713;48.506;8.966;2022-09-09T09:59:45;3.30;;;1.17;;
23088;SDS011;11713;48.506;8.966;2022-09-09T10:02:24;3.80;;;0.90;;
23088;SDS011;11713;48.506;8.966;2022-09-09T10:05:20;1.85;;;1.05;;
23088;SDS011;11713;48.506;8.966;2022-09-09T10:08:11;4.93;;;1.15;;
23088;SDS011;11713;48.506;8.966;2022-09-09T10:10:51;3.35;;;1.17;;
23088;SDS011;11713;48.506;8.966;2022-09-09T10:19:20;1.95;;;0.90;;
23088;SDS011;11713;48.506;8.966;2022-09-09T10:22:06;3.53;;;1.33;;
23088;SDS011;11713;48.506;8.966;2022-09-09T10:30:19;4.93;;;1.10;;
23088;SDS011;11713;48.506;8.966;2022-09-09T10:38:18;2.72;;;0.93;;
23088;SDS011;11713;48.506;8.966;2022-09-09T10:41:26;1.90;;;1.00;;
23088;SDS011;11713;48.506;8.966;2022-09-09T10:44:17;1.83;;;0.93;;
23088;SDS011;11713;48.506;8.966;2022-09-09T10:49:54;2.08;;;1.08;;
23088;SDS011;11713;48.506;8.966;2022-09-09T10:55:18;3.08;;;0.90;;
23088;SDS011;11713;48.506;8.966;2022-09-09T10:57:50;2.05;;;0.95;;
23088;SDS011;11713;48.506;8.966;2022-09-09T11:00:23;1.05;;;0.70;;
23088;SDS011;11713;48.506;8.966;2022-09-09T11:03:02;2.00;;;0.90;;
23088;SDS011;11713;48.506;8.966;2022-09-09T11:05:41;1.58;;;0.85;;
23088;SDS011;11713;48.506;8.966;2022-09-09T11:08:14;2.95;;;0.80;;
23088;SDS011;11713;48.506;8.966;2022-09-09T11:10:48;2.33;;;1.00;;
23088;SDS011;11713;48.506;8.966;2022-09-09T11:13:23;3.25;;;0.80;;
23088;SDS011;11713;48.506;8.966;2022-09-09T11:16:15;3.45;;;1.00;;
23088;SDS011;11713;48.506;8.966;2022-09-09T11:22:06;2.25;;;1.08;;
23088;SDS011;11713;48.506;8.966;2022-09-09T11:27:09;2.80;;;0.65;;
23088;SDS011;11713;48.506;8.966;2022-09-09T11:29:57;1.58;;;0.77;;
23088;SDS011;11713;48.506;8.966;2022-09-09T11:32:45;0.95;;;0.50;;
23088;SDS011;11713;48.506;8.966;2022-09-09T11:35:34;2.78;;;0.80;;
23088;SDS011;11713;48.506;8.966;2022-09-09T11:38:21;1.55;;;0.60;;
23088;SDS011;11713;48.506;8.966;2022-09-09T11:40:57;2.75;;;0.70;;
23088;SDS011;11713;48.506;8.966;2022-09-09T11:43:33;1.55;;;0.68;;
23088;SDS011;11713;48.506;8.966;2022-09-09T11:46:03;1.80;;;0.70;;
23088;SDS011;11713;48.506;8.966;2022-09-09T11:48:33;1.60;;;0.70;;
23088;SDS011;11713;48.506;8.966;2022-09-09T11:51:08;1.65;;;0.63;;
23088;SDS011;11713;48.506;8.966;2022-09-09T11:53:46;3.83;;;0.93;;
23088;SDS011;11713;48.506;8.966;2022-09-09T11:56:24;2.80;;;0.80;;
23088;SDS011;11713;48.506;8.966;2022-09-09T12:01:37;1.98;;;0.80;;
23088;SDS011;11713;48.506;8.966;2022-09-09T12:04:11;3.60;;;0.80;;
23088;SDS011;11713;48.506;8.966;2022-09-09T12:06:51;2.78;;;0.80;;
23088;SDS011;11713;48.506;8.966;2022-09-09T12:12:36;3.50;;;0.80;;
23088;SDS011;11713;48.506;8.966;2022-09-09T12:17:46;3.28;;;0.90;;
23088;SDS011;11713;48.506;8.966;2022-09-09T12:20:19;3.17;;;0.98;;
23088;SDS011;11713;48.506;8.966;2022-09-09T12:25:56;2.28;;;0.73;;
23088;SDS011;11713;48.506;8.966;2022-09-09T12:28:40;2.17;;;0.80;;
23088;SDS011;11713;48.506;8.966;2022-09-09T12:31:25;1.65;;;0.70;;
23088;SDS011;11713;48.506;8.966;2022-09-09T12:34:16;1.35;;;0.90;;
23088;SDS011;11713;48.506;8.966;2022-09-09T12:36:56;3.13;;;1.13;;
23088;SDS011;11713;48.506;8.966;2022-09-09T12:39:39;3.45;;;0.80;;
23088;SDS011;11713;48.506;8.966;2022-09-09T12:42:16;3.40;;;0.80;;
23088;SDS011;11713;48.506;8.966;2022-09-09T12:44:53;3.60;;;1.00;;
23088;SDS011;11713;48.506;8.966;2022-09-09T12:47:22;2.40;;;0.80;;
23088;SDS011;11713;48.506;8.966;2022-09-09T12:49:57;2.97;;;1.13;;
23088;SDS011;11713;48.506;8.966;2022-09-09T12:52:25;2.90;;;0.73;;
23088;SDS011;11713;48.506;8.966;2022-09-09T12:55:01;2.10;;;0.80;;
23088;SDS011;11713;48.506;8.966;2022-09-09T12:57:33;3.97;;;0.85;;
23088;SDS011;11713;48.506;8.966;2022-09-09T13:00:07;1.92;;;0.77;;
23088;SDS011;11713;48.506;8.966;2022-09-09T13:02:52;3.35;;;1.17;;
23088;SDS011;11713;48.506;8.966;2022-09-09T13:05:27;1.92;;;0.88;;
23088;SDS011;11713;48.506;8.966;2022-09-09T13:08:03;3.65;;;1.00;;
23088;SDS011;11713;48.506;8.966;2022-09-09T13:10:32;3.78;;;0.90;;
23088;SDS011;11713;48.506;8.966;2022-09-09T13:13:01;3.58;;;1.30;;
23088;SDS011;11713;48.506;8.966;2022-09-09T13:15:28;3.75;;;0.90;;
23088;SDS011;11713;48.506;8.966;2022-09-09T13:18:00;1.80;;;0.90;;
23088;SDS011;11713;48.506;8.966;2022-09-09T13:20:37;2.47;;;0.80;;
23088;SDS011;11713;48.506;8.966;2022-09-09T13:23:03;2.15;;;0.90;;
23088;SDS011;11713;48.506;8.966;2022-09-09T13:25:29;2.72;;;0.75;;
23088;SDS011;11713;48.506;8.966;2022-09-09T13:28:02;1.85;;;0.80;;
23088;SDS011;11713;48.506;8.966;2022-09-09T13:33:17;3.38;;;0.85;;
23088;SDS011;11713;48.506;8.966;2022-09-09T13:38:15;2.17;;;0.90;;
23088;SDS011;11713;48.506;8.966;2022-09-09T13:40:58;4.43;;;0.85;;
23088;SDS011;11713;48.506;8.966;2022-09-09T13:43:31;1.92;;;0.70;;
23088;SDS011;11713;48.506;8.966;2022-09-09T13:46:22;3.75;;;0.70;;
23088;SDS011;11713;48.506;8.966;2022-09-09T13:48:59;2.42;;;0.90;;
23088;SDS011;11713;48.506;8.966;2022-09-09T13:51:29;2.72;;;0.90;;
23088;SDS011;11713;48.506;8.966;2022-09-09T13:54:02;1.55;;;0.65;;
23088;SDS011;11713;48.506;8.966;2022-09-09T13:56:31;2.58;;;0.85;;
23088;SDS011;11713;48.506;8.966;2022-09-09T13:59:00;2.63;;;0.93;;
23088;SDS011;11713;48.506;8.966;2022-09-09T14:01:27;2.25;;;0.70;;
23088;SDS011;11713;48.506;8.966;2022-09-09T14:03:53;2.95;;;0.70;;
23088;SDS011;11713;48.506;8.966;2022-09-09T14:06:19;1.95;;;0.80;;
23088;SDS011;11713;48.506;8.966;2022-09-09T14:08:47;3.28;;;0.80;;
23088;SDS011;11713;48.506;8.966;2022-09-09T14:11:17;2.10;;;0.73;;
23088;SDS011;11713;48.506;8.966;2022-09-09T14:13:44;2.47;;;0.90;;
23088;SDS011;11713;48.506;8.966;2022-09-09T14:16:10;1.75;;;0.85;;
23088;SDS011;11713;48.506;8.966;2022-09-09T14:18:36;2.03;;;0.90;;
23088;SDS011;11713;48.506;8.966;2022-09-09T14:21:03;2.22;;;0.70;;
23088;SDS011;11713;48.506;8.966;2022-09-09T14:23:28;2.08;;;0.60;;
23088;SDS011;11713;48.506;8.966;2022-09-09T14:25:55;2.50;;;0.68;;
23088;SDS011;11713;48.506;8.966;2022-09-09T14:28:22;2.22;;;0.80;;
23088;SDS011;11713;48.506;8.966;2022-09-09T14:30:52;2.70;;;0.70;;
23088;SDS011;11713;48.506;8.966;2022-09-09T14:33:24;3.60;;;0.90;;
23088;SDS011;11713;48.506;8.966;2022-09-09T14:35:58;3.30;;;0.70;;
23088;SDS011;11713;48.506;8.966;2022-09-09T14:38:32;2.05;;;0.68;;
23088;SDS011;11713;48.506;8.966;2022-09-09T14:41:00;3.70;;;0.73;;
23088;SDS011;11713;48.506;8.966;2022-09-09T14:43:28;2.00;;;0.70;;
23088;SDS011;11713;48.506;8.966;2022-09-09T14:45:57;3.25;;;1.05;;
23088;SDS011;11713;48.506;8.966;2022-09-09T14:48:23;1.98;;;0.70;;
23088;SDS011;11713;48.506;8.966;2022-09-09T14:50:49;1.42;;;0.65;;
23088;SDS011;11713;48.506;8.966;2022-09-09T14:53:15;3.95;;;1.13;;
23088;SDS011;11713;48.506;8.966;2022-09-09T14:55:42;2.17;;;0.70;;
23088;SDS011;11713;48.506;8.966;2022-09-09T14:58:07;1.98;;;0.80;;
23088;SDS011;11713;48.506;8.966;2022-09-09T15:00:33;2.92;;;0.70;;
23088;SDS011;11713;48.506;8.966;2022-09-09T15:02:59;1.65;;;0.70;;
23088;SDS011;11713;48.506;8.966;2022-09-09T15:05:25;1.88;;;0.70;;
23088;SDS011;11713;48.506;8.966;2022-09-09T15:07:50;1.27;;;0.52;;
23088;SDS011;11713;48.506;8.966;2022-09-09T15:10:16;0.85;;;0.60;;
23088;SDS011;11713;48.506;8.966;2022-09-09T15:12:43;1.92;;;0.65;;
23088;SDS011;11713;48.506;8.966;2022-09-09T15:15:09;3.10;;;0.80;;
23088;SDS011;11713;48.506;8.966;2022-09-09T15:17:35;2.88;;;0.80;;
23088;SDS011;11713;48.506;8.966;2022-09-09T15:20:02;2.33;;;0.80;;
23088;SDS011;11713;48.506;8.966;2022-09-09T15:22:30;1.52;;;0.73;;
23088;SDS011;11713;48.506;8.966;2022-09-09T15:24:57;3.05;;;0.98;;
23088;SDS011;11713;48.506;8.966;2022-09-09T15:27:22;3.40;;;1.10;;
23088;SDS011;11713;48.506;8.966;2022-09-09T15:29:49;6.95;;;0.80;;
23088;SDS011;11713;48.506;8.966;2022-09-09T15:32:16;4.25;;;0.88;;
23088;SDS011;11713;48.506;8.966;2022-09-09T15:34:43;1.90;;;0.70;;
23088;SDS011;11713;48.506;8.966;2022-09-09T15:37:12;1.90;;;0.75;;
23088;SDS011;11713;48.506;8.966;2022-09-09T15:39:38;0.75;;;0.50;;
23088;SDS011;11713;48.506;8.966;2022-09-09T15:42:05;2.58;;;0.80;;
23088;SDS011;11713;48.506;8.966;2022-09-09T15:44:38;1.42;;;0.65;;
23088;SDS011;11713;48.506;8.966;2022-09-09T15:47:04;2.00;;;0.70;;
23088;SDS011;11713;48.506;8.966;2022-09-09T15:49:30;1.33;;;0.52;;
23088;SDS011;11713;48.506;8.966;2022-09-09T15:51:57;0.85;;;0.55;;
23088;SDS011;11713;48.506;8.966;2022-09-09T15:54:30;2.75;;;0.60;;
23088;SDS011;11713;48.506;8.966;2022-09-09T15:56:59;2.17;;;0.77;;
23088;SDS011;11713;48.506;8.966;2022-09-09T15:59:29;0.95;;;0.50;;
23088;SDS011;11713;48.506;8.966;2022-09-09T16:01:56;1.05;;;0.60;;
23088;SDS011;11713;48.506;8.966;2022-09-09T16:04:25;3.92;;;0.70;;
23088;SDS011;11713;48.506;8.966;2022-09-09T16:06:59;2.05;;;0.70;;
23088;SDS011;11713;48.506;8.966;2022-09-09T16:09:27;2.28;;;0.90;;
23088;SDS011;11713;48.506;8.966;2022-09-09T16:11:55;1.38;;;0.52;;
23088;SDS011;11713;48.506;8.966;2022-09-09T16:14:26;1.38;;;0.65;;
23088;SDS011;11713;48.506;8.966;2022-09-09T16:16:52;2.75;;;0.60;;
23088;SDS011;11713;48.506;8.966;2022-09-09T16:19:18;0.80;;;0.50;;
23088;SDS011;11713;48.506;8.966;2022-09-09T16:21:45;2.65;;;0.60;;
23088;SDS011;11713;48.506;8.966;2022-09-09T16:24:14;1.23;;;0.60;;
23088;SDS011;11713;48.506;8.966;2022-09-09T16:26:43;3.88;;;0.77;;
23088;SDS011;11713;48.506;8.966;2022-09-09T16:29:11;4.13;;;0.75;;
23088;SDS011;11713;48.506;8.966;2022-09-09T16:31:38;2.63;;;0.68;;
23088;SDS011;11713;48.506;8.966;2022-09-09T16:34:05;2.05;;;0.65;;
23088;SDS011;11713;48.506;8.966;2022-09-09T16:36:33;2.47;;;0.50;;
23088;SDS011;11713;48.506;8.966;2022-09-09T16:39:02;2.72;;;0.82;;
23088;SDS011;11713;48.506;8.966;2022-09-09T16:41:30;3.75;;;0.70;;
23088;SDS011;11713;48.506;8.966;2022-09-09T16:43:57;1.00;;;0.55;;
23088;SDS011;11713;48.506;8.966;2022-09-09T16:46:33;1.10;;;0.32;;
23088;SDS011;11713;48.506;8.966;2022-09-09T16:49:02;1.98;;;0.70;;
23088;SDS011;11713;48.506;8.966;2022-09-09T16:51:31;2.10;;;0.60;;
23088;SDS011;11713;48.506;8.966;2022-09-09T16:54:03;2.25;;;0.50;;
23088;SDS011;11713;48.506;8.966;2022-09-09T16:56:32;1.52;;;0.68;;
23088;SDS011;11713;48.506;8.966;2022-09-09T16:59:03;0.82;;;0.65;;
23088;SDS011;11713;48.506;8.966;2022-09-09T17:01:31;1.88;;;0.70;;
23088;SDS011;11713;48.506;8.966;2022-09-09T17:04:00;1.80;;;0.68;;